Home > Products > Valid Products > MTR

000
SAUS46 KMTR 020356
MTRMHS
METAR KMHS 020356Z AUTO 00000KT 10SM CLR 09/04 A3015 RMK AO2 SLP223
T00890039





000
SAUS46 KMTR 020155
MTRMHS
METAR KMHS 020156Z AUTO VRB03KT 10SM CLR 14/04 A3013 RMK AO2 SLP215
T01390039





000
SAUS46 KMTR 020056
MTRMHS
METAR KMHS 020056Z AUTO VRB03KT 10SM CLR 17/04 A3011 RMK AO2 SLP204
T01720044





000
SAUS46 KMTR 012356
MTRMHS
METAR KMHS 012356Z AUTO 29004KT 10SM CLR 18/04 A3010 RMK AO2 SLP197
T01780039 10194 20139 58007





000
SAUS46 KMTR 012256
MTRMHS
METAR KMHS 012256Z AUTO 29007KT 10SM CLR 19/04 A3011 RMK AO2 SLP201
T01890039





000
SAUS46 KMTR 012157
MTRMHS
METAR KMHS 012156Z AUTO VRB05KT 10SM CLR 19/04 A3011 RMK AO2 SLP201
T01890039





000
SAUS46 KMTR 012056
MTRMHS
METAR KMHS 012056Z AUTO 10SM CLR 18/04 A3012 RMK AO2 SLP203
T01780039 56015





000
SAUS46 KMTR 011956
MTRMHS
METAR KMHS 011956Z AUTO 29006KT 10SM CLR 17/04 A3013 RMK AO2 SLP210
T01720039





000
SAUS46 KMTR 011757
MTRMHS
METAR KMHS 011756Z AUTO 00000KT 10SM CLR 14/03 A3017 RMK AO2 SLP224
T01390033 10144 20033 58002





000
SAUS46 KMTR 011357
MTRMHS
METAR KMHS 011356Z AUTO 00000KT 10SM CLR 04/02 A3017 RMK AO2 SLP232
T00440022 $





000
SAUS46 KMTR 011256
MTRMHS
METAR KMHS 011256Z AUTO VRB03KT 10SM CLR 06/03 A3015 RMK AO2 SLP224
T00610033 $





000
SAUS46 KMTR 011157
MTRMHS
METAR KMHS 011156Z AUTO VRB03KT 10SM CLR 07/03 A3014 RMK AO2 SLP217
T00720033 10089 20067 53003





000
SAUS46 KMTR 010956
MTRMHS
METAR KMHS 010956Z AUTO VRB05KT 10SM CLR 08/04 A3012 RMK AO2 SLP207
T00780039





000
SAUS46 KMTR 010755
MTRMHS
METAR KMHS 010756Z AUTO 03005KT 10SM CLR 08/04 A3012 RMK AO2 SLP207
T00830039 401670078





000
SAUS46 KMTR 010556
MTRMHS
METAR KMHS 010556Z AUTO VRB03KT 10SM CLR 09/04 A3012 RMK AO2 SLP210
T00890039 10150 20089 50009





000
SAUS46 KMTR 010456
MTRMHS
METAR KMHS 010456Z AUTO VRB05KT 10SM CLR 10/04 A3012 RMK AO2 SLP208
T01000039





000
SAUS46 KMTR 010356
MTRMHS
METAR KMHS 010356Z AUTO VRB04KT 10SM CLR 11/03 A3011 RMK AO2 SLP205
T01060033





000
SAUS46 KMTR 010256
MTRMHS
METAR KMHS 010256Z AUTO VRB06G16KT 10SM CLR 12/03 A3009 RMK AO2
SLP200 T01170028 53008





000
SAUS46 KMTR 010156
MTRMHS
METAR KMHS 010156Z AUTO 34008KT 310V050 10SM CLR 12/02 A3007 RMK AO2
SLP190 T01220022





000
SAUS46 KMTR 302357
MTRMHS
METAR KMHS 302356Z AUTO 33007G16KT 270V020 10SM CLR 15/03 A3006 RMK
AO2 SLP184 T01500028 10167 20133 56011





000
SAUS46 KMTR 302255
MTRMHS
METAR KMHS 302256Z AUTO 31009G19KT 270V360 10SM CLR 16/03 A3007 RMK
AO2 SLP182 T01610028





000
SAUS46 KMTR 302056
MTRMHS
METAR KMHS 302056Z AUTO 32008G18KT 290V360 10SM CLR 16/02 A3010 RMK
AO2 SLP194 T01610017 56004





000
SAUS46 KMTR 301756
MTRMHS
METAR KMHS 301756Z AUTO 30008KT 280V340 10SM CLR 13/04 A3011 RMK AO2
SLP203 T01330044 10139 20100 53004





000
SAUS46 KMTR 301556
MTRMHS
METAR KMHS 301556Z AUTO VRB04KT 10SM SCT022 11/06 A3011 RMK AO2
SLP202 T01060061





000
SAUS46 KMTR 301543
MTRMHS
SPECI KMHS 301543Z AUTO VRB03KT 10SM SCT022 SCT028 10/06 A3011 RMK
AO2 T01000061





000
SAUS46 KMTR 301356
MTRMHS
METAR KMHS 301356Z AUTO VRB03KT 10SM BKN019 11/07 A3008 RMK AO2
SLP189 T01060072





000
SAUS46 KMTR 301347
MTRMHS
SPECI KMHS 301347Z AUTO 00000KT 10SM BKN019 BKN043 10/07 A3008 RMK
AO2 T01000072





000
SAUS46 KMTR 301256
MTRMHS
METAR KMHS 301256Z AUTO VRB03KT 10SM FEW019 SCT025 11/08 A3006 RMK
AO2 SLP179 T01060078





000
SAUS46 KMTR 301254
MTRMHS
SPECI KMHS 301254Z AUTO VRB03KT 10SM FEW019 SCT025 SCT031 11/08
A3006 RMK AO2





000
SAUS46 KMTR 301216
MTRMHS
SPECI KMHS 301215Z AUTO VRB04KT 10SM BKN021 OVC030 12/08 A3005 RMK
AO2 T01170083





000
SAUS46 KMTR 301156
MTRMHS
METAR KMHS 301156Z AUTO VRB04KT 10SM FEW026 BKN033 12/09 A3005 RMK
AO2 SLP171 T01170089 10133 20111 53002





000
SAUS46 KMTR 301056
MTRMHS
METAR KMHS 301056Z AUTO VRB03KT 10SM FEW029 12/09 A3004 RMK AO2
SLP164 T01220089





000
SAUS46 KMTR 300856
MTRMHS
METAR KMHS 300856Z AUTO VRB03KT 10SM CLR 12/09 A3004 RMK AO2 SLP166
T01220089 53002





000
SAUS46 KMTR 300756
MTRMHS
METAR KMHS 300756Z AUTO VRB04KT 10SM CLR 13/08 A3003 RMK AO2 SLP159
T01330083 402440050





000
SAUS46 KMTR 300656
MTRMHS
METAR KMHS 300656Z AUTO 00000KT 10SM CLR 13/09 A3003 RMK AO2 SLP163
T01330089





000
SAUS46 KMTR 300556
MTRMHS
METAR KMHS 300556Z AUTO 00000KT 10SM CLR 12/09 A3003 RMK AO2 SLP169
T01170094 10211 20111 51009





000
SAUS46 KMTR 300456
MTRMHS
METAR KMHS 300456Z AUTO 00000KT 10SM FEW065 13/10 A3003 RMK AO2
SLP169 T01280100





000
SAUS46 KMTR 300356
MTRMHS
METAR KMHS 300356Z AUTO 00000KT 10SM CLR 13/11 A3002 RMK AO2 SLP169
T01280106





000
SAUS46 KMTR 300256
MTRMHS
METAR KMHS 300256Z AUTO 00000KT 10SM CLR 14/11 A3000 RMK AO2 SLP166
T01440111 53005





000
SAUS46 KMTR 300156
MTRMHS
METAR KMHS 300156Z AUTO VRB03KT 10SM CLR 17/11 A2999 RMK AO2 SLP163
T01720111





000
SAUS46 KMTR 300056
MTRMHS
METAR KMHS 300056Z AUTO 00000KT 10SM CLR 19/12 A2998 RMK AO2 SLP157
T01940117





000
SAUS46 KMTR 292356
MTRMHS
METAR KMHS 292356Z AUTO VRB04KT 10SM CLR 21/09 A2999 RMK AO2 SLP157
T02110094 10244 20189 56012





000
SAUS46 KMTR 292257
MTRMHS
METAR KMHS 292256Z AUTO VRB04KT 10SM CLR 24/05 A2999 RMK AO2 SLP152





000
SAUS46 KMTR 292156
MTRMHS
METAR KMHS 292156Z AUTO VRB04KT 10SM CLR 24/06 A3000 RMK AO2 SLP158
T02390056





000
SAUS46 KMTR 291956
MTRMHS
METAR KMHS 291956Z AUTO VRB05KT 10SM CLR 23/03 A3004 RMK AO2 SLP173
T02280033





000
SAUS46 KMTR 291856
MTRMHS
METAR KMHS 291856Z AUTO 31006KT 10SM CLR 21/06 A3005 RMK AO2 SLP177
T02110056





000
SAUS46 KMTR 291756
MTRMHS
METAR KMHS 291756Z AUTO VRB06KT 10SM CLR 19/09 A3006 RMK AO2 SLP182
T01940089 10194 20050 51010





000
SAUS46 KMTR 291656
MTRMHS
METAR KMHS 291656Z AUTO 29005KT 10SM CLR 17/09 A3006 RMK AO2 SLP182
T01670094





000
SAUS46 KMTR 291456
MTRMHS
METAR KMHS 291456Z AUTO VRB03KT 10SM CLR 09/07 A3003 RMK AO2 SLP175
T00940072 53004





000
SAUS46 KMTR 291356
MTRMHS
METAR KMHS 291356Z AUTO 00000KT 10SM CLR 06/04 A3002 RMK AO2 SLP177
T00560044





000
SAUS46 KMTR 291256
MTRMHS
METAR KMHS 291256Z AUTO 00000KT 10SM CLR 06/05 A3001 RMK AO2 SLP171
T00610050





000
SAUS46 KMTR 291156
MTRMHS
METAR KMHS 291156Z AUTO 00000KT 10SM CLR 06/04 A3001 RMK AO2 SLP170
T00560044 10083 20050 58002





000
SAUS46 KMTR 291057
MTRMHS
METAR KMHS 291056Z AUTO 00000KT 10SM CLR 06/05 A3002 RMK AO2 SLP171
T00610050





000
SAUS46 KMTR 290856
MTRMHS
METAR KMHS 290856Z AUTO 00000KT 10SM CLR 06/04 A3002 RMK AO2 SLP175
T00610044 58001





000
SAUS46 KMTR 290656
MTRMHS
METAR KMHS 290656Z AUTO 00000KT 10SM CLR 07/06 A3003 RMK AO2 SLP179
T00720061





    US Dept of Commerce
    National Oceanic and Atmospheric Administration
    National Weather Service
    1325 East West Highway
    Silver Spring, MD 20910
    Page Author: NWS Internet Services Team
Disclaimer
Information Quality
Credits
Glossary
Privacy Policy
Freedom of Information Act (FOIA)
About Us
Career Opportunities